sensor_id;sensor_type;location;lat;lon;timestamp;temperature;humidity
61351;DHT22;47119;49.130;9.218;2023-07-02T00:02:24;21.26;77.28
61351;DHT22;47119;49.130;9.218;2023-07-02T00:05:07;21.24;77.55
61351;DHT22;47119;49.130;9.218;2023-07-02T00:07:39;21.18;77.13
61351;DHT22;47119;49.130;9.218;2023-07-02T00:10:17;21.12;76.62
61351;DHT22;47119;49.130;9.218;2023-07-02T00:12:48;21.16;76.96
61351;DHT22;47119;49.130;9.218;2023-07-02T00:15:51;21.22;77.30
61351;DHT22;47119;49.130;9.218;2023-07-02T00:21:52;21.22;77.33
61351;DHT22;47119;49.130;9.218;2023-07-02T00:41:40;21.12;76.51
61351;DHT22;47119;49.130;9.218;2023-07-02T01:33:11;21.08;75.57
61351;DHT22;47119;49.130;9.218;2023-07-02T01:35:40;21.08;75.21
61351;DHT22;47119;49.130;9.218;2023-07-02T01:38:11;20.99;74.91
61351;DHT22;47119;49.130;9.218;2023-07-02T01:40:38;20.99;74.80
61351;DHT22;47119;49.130;9.218;2023-07-02T01:43:08;21.01;74.79
61351;DHT22;47119;49.130;9.218;2023-07-02T01:45:41;20.91;74.81
61351;DHT22;47119;49.130;9.218;2023-07-02T01:51:58;20.92;75.30
61351;DHT22;47119;49.130;9.218;2023-07-02T01:54:32;20.90;75.32
61351;DHT22;47119;49.130;9.218;2023-07-02T01:57:28;20.99;74.44
61351;DHT22;47119;49.130;9.218;2023-07-02T02:00:01;21.08;75.05
61351;DHT22;47119;49.130;9.218;2023-07-02T02:02:44;20.98;74.51
61351;DHT22;47119;49.130;9.218;2023-07-02T02:05:16;20.92;74.01
61351;DHT22;47119;49.130;9.218;2023-07-02T02:07:52;20.92;75.34
61351;DHT22;47119;49.130;9.218;2023-07-02T02:10:20;20.88;74.99
61351;DHT22;47119;49.130;9.218;2023-07-02T02:13:03;20.91;74.84
61351;DHT22;47119;49.130;9.218;2023-07-02T02:15:31;20.98;75.03
61351;DHT22;47119;49.130;9.218;2023-07-02T02:18:05;21.02;74.31
61351;DHT22;47119;49.130;9.218;2023-07-02T02:20:44;20.88;74.69
61351;DHT22;47119;49.130;9.218;2023-07-02T02:38:24;21.06;73.25
61351;DHT22;47119;49.130;9.218;2023-07-02T02:41:13;20.94;72.17
61351;DHT22;47119;49.130;9.218;2023-07-02T02:43:47;20.97;72.39
61351;DHT22;47119;49.130;9.218;2023-07-02T02:46:20;20.94;71.95
61351;DHT22;47119;49.130;9.218;2023-07-02T02:48:51;20.99;71.62
61351;DHT22;47119;49.130;9.218;2023-07-02T02:51:18;21.01;70.85
61351;DHT22;47119;49.130;9.218;2023-07-02T02:53:49;20.90;71.21
61351;DHT22;47119;49.130;9.218;2023-07-02T02:56:19;20.90;71.00
61351;DHT22;47119;49.130;9.218;2023-07-02T02:58:48;20.83;70.11
61351;DHT22;47119;49.130;9.218;2023-07-02T03:01:15;20.78;70.14
61351;DHT22;47119;49.130;9.218;2023-07-02T03:03:44;20.78;70.21
61351;DHT22;47119;49.130;9.218;2023-07-02T03:08:42;20.84;70.68
61351;DHT22;47119;49.130;9.218;2023-07-02T03:11:11;20.88;70.57
61351;DHT22;47119;49.130;9.218;2023-07-02T03:13:42;20.84;70.52
61351;DHT22;47119;49.130;9.218;2023-07-02T03:16:13;20.92;71.07
61351;DHT22;47119;49.130;9.218;2023-07-02T03:18:40;20.91;70.76
61351;DHT22;47119;49.130;9.218;2023-07-02T03:21:07;20.83;70.81
61351;DHT22;47119;49.130;9.218;2023-07-02T03:23:37;20.78;70.41
61351;DHT22;47119;49.130;9.218;2023-07-02T03:26:04;20.80;70.73
61351;DHT22;47119;49.130;9.218;2023-07-02T03:28:32;20.80;70.91
61351;DHT22;47119;49.130;9.218;2023-07-02T03:31:00;20.84;70.86
61351;DHT22;47119;49.130;9.218;2023-07-02T03:33:27;20.77;70.52
61351;DHT22;47119;49.130;9.218;2023-07-02T03:35:54;20.68;70.51
61351;DHT22;47119;49.130;9.218;2023-07-02T03:38:23;20.63;70.22
61351;DHT22;47119;49.130;9.218;2023-07-02T03:40:53;20.60;70.10
61351;DHT22;47119;49.130;9.218;2023-07-02T03:43:19;20.66;70.27
61351;DHT22;47119;49.130;9.218;2023-07-02T03:45:48;20.71;70.46
61351;DHT22;47119;49.130;9.218;2023-07-02T03:48:15;20.68;70.15
61351;DHT22;47119;49.130;9.218;2023-07-02T03:50:42;20.73;70.82
61351;DHT22;47119;49.130;9.218;2023-07-02T03:53:11;20.75;70.82
61351;DHT22;47119;49.130;9.218;2023-07-02T03:55:43;20.73;70.80
61351;DHT22;47119;49.130;9.218;2023-07-02T03:58:12;20.63;70.51
61351;DHT22;47119;49.130;9.218;2023-07-02T04:00:42;20.57;70.72
61351;DHT22;47119;49.130;9.218;2023-07-02T04:03:13;20.64;71.04
61351;DHT22;47119;49.130;9.218;2023-07-02T04:05:42;20.53;70.20
61351;DHT22;47119;49.130;9.218;2023-07-02T04:08:12;20.56;70.66
61351;DHT22;47119;49.130;9.218;2023-07-02T04:10:39;20.51;70.69
61351;DHT22;47119;49.130;9.218;2023-07-02T04:13:06;20.63;70.29
61351;DHT22;47119;49.130;9.218;2023-07-02T04:15:38;20.61;70.24
61351;DHT22;47119;49.130;9.218;2023-07-02T04:18:05;20.53;69.99
61351;DHT22;47119;49.130;9.218;2023-07-02T04:20:34;20.60;70.42
61351;DHT22;47119;49.130;9.218;2023-07-02T04:23:04;20.63;69.72
61351;DHT22;47119;49.130;9.218;2023-07-02T04:25:37;20.60;69.89
61351;DHT22;47119;49.130;9.218;2023-07-02T04:28:05;20.54;70.04
61351;DHT22;47119;49.130;9.218;2023-07-02T04:30:40;20.53;69.82
61351;DHT22;47119;49.130;9.218;2023-07-02T04:33:08;20.53;70.54
61351;DHT22;47119;49.130;9.218;2023-07-02T04:35:41;20.51;69.67
61351;DHT22;47119;49.130;9.218;2023-07-02T04:38:08;20.54;69.96
61351;DHT22;47119;49.130;9.218;2023-07-02T04:40:37;20.56;69.31
61351;DHT22;47119;49.130;9.218;2023-07-02T04:43:07;20.51;69.85
61351;DHT22;47119;49.130;9.218;2023-07-02T04:45:36;20.50;70.62
61351;DHT22;47119;49.130;9.218;2023-07-02T04:48:05;20.46;69.89
61351;DHT22;47119;49.130;9.218;2023-07-02T04:50:33;20.47;70.02
61351;DHT22;47119;49.130;9.218;2023-07-02T04:53:04;20.33;69.72
61351;DHT22;47119;49.130;9.218;2023-07-02T04:55:33;20.50;69.92
61351;DHT22;47119;49.130;9.218;2023-07-02T04:58:03;20.44;68.95
61351;DHT22;47119;49.130;9.218;2023-07-02T05:00:34;20.39;69.37
61351;DHT22;47119;49.130;9.218;2023-07-02T05:03:02;20.37;69.70
61351;DHT22;47119;49.130;9.218;2023-07-02T05:05:31;20.40;69.61
61351;DHT22;47119;49.130;9.218;2023-07-02T05:08:00;20.33;69.49
61351;DHT22;47119;49.130;9.218;2023-07-02T05:10:33;20.36;69.79
61351;DHT22;47119;49.130;9.218;2023-07-02T05:13:02;20.36;68.89
61351;DHT22;47119;49.130;9.218;2023-07-02T05:15:31;20.34;69.30
61351;DHT22;47119;49.130;9.218;2023-07-02T05:17:58;20.46;69.27
61351;DHT22;47119;49.130;9.218;2023-07-02T05:20:26;20.36;69.31
61351;DHT22;47119;49.130;9.218;2023-07-02T05:22:55;20.43;69.50
61351;DHT22;47119;49.130;9.218;2023-07-02T05:25:27;20.51;69.37
61351;DHT22;47119;49.130;9.218;2023-07-02T05:27:58;20.51;69.70
61351;DHT22;47119;49.130;9.218;2023-07-02T05:30:28;20.51;69.52
61351;DHT22;47119;49.130;9.218;2023-07-02T05:33:00;20.53;69.83
61351;DHT22;47119;49.130;9.218;2023-07-02T05:35:30;20.44;69.88
61351;DHT22;47119;49.130;9.218;2023-07-02T05:37:59;20.37;69.14
61351;DHT22;47119;49.130;9.218;2023-07-02T05:40:32;20.30;69.52
61351;DHT22;47119;49.130;9.218;2023-07-02T05:52:29;20.48;69.50
61351;DHT22;47119;49.130;9.218;2023-07-02T05:54:56;20.51;69.92
61351;DHT22;47119;49.130;9.218;2023-07-02T05:57:23;20.47;69.62
61351;DHT22;47119;49.130;9.218;2023-07-02T05:59:50;20.47;69.77
61351;DHT22;47119;49.130;9.218;2023-07-02T06:02:20;20.51;69.21
61351;DHT22;47119;49.130;9.218;2023-07-02T06:04:51;20.53;69.41
61351;DHT22;47119;49.130;9.218;2023-07-02T06:07:22;20.47;69.11
61351;DHT22;47119;49.130;9.218;2023-07-02T06:09:51;20.54;69.13
61351;DHT22;47119;49.130;9.218;2023-07-02T06:12:21;20.56;69.18
61351;DHT22;47119;49.130;9.218;2023-07-02T06:14:52;20.56;68.16
61351;DHT22;47119;49.130;9.218;2023-07-02T06:17:30;20.56;68.45
61351;DHT22;47119;49.130;9.218;2023-07-02T06:19:58;20.57;68.57
61351;DHT22;47119;49.130;9.218;2023-07-02T06:22:28;20.46;67.02
61351;DHT22;47119;49.130;9.218;2023-07-02T06:24:55;20.41;66.83
61351;DHT22;47119;49.130;9.218;2023-07-02T06:27:22;20.41;66.20
61351;DHT22;47119;49.130;9.218;2023-07-02T06:29:49;20.51;67.07
61351;DHT22;47119;49.130;9.218;2023-07-02T06:32:21;20.56;66.85
61351;DHT22;47119;49.130;9.218;2023-07-02T06:34:51;20.51;66.59
61351;DHT22;47119;49.130;9.218;2023-07-02T06:37:24;20.41;65.49
61351;DHT22;47119;49.130;9.218;2023-07-02T06:39:54;20.50;65.93
61351;DHT22;47119;49.130;9.218;2023-07-02T06:42:26;20.50;65.86
61351;DHT22;47119;49.130;9.218;2023-07-02T06:44:53;20.54;65.81
61351;DHT22;47119;49.130;9.218;2023-07-02T06:47:20;20.56;66.65
61351;DHT22;47119;49.130;9.218;2023-07-02T06:49:52;20.47;65.55
61351;DHT22;47119;49.130;9.218;2023-07-02T06:52:30;20.46;65.75
61351;DHT22;47119;49.130;9.218;2023-07-02T06:55:03;20.43;65.69
61351;DHT22;47119;49.130;9.218;2023-07-02T06:57:41;20.51;65.92
61351;DHT22;47119;49.130;9.218;2023-07-02T07:00:22;20.48;66.08
61351;DHT22;47119;49.130;9.218;2023-07-02T07:03:06;20.54;66.05
61351;DHT22;47119;49.130;9.218;2023-07-02T07:05:36;20.54;65.52
61351;DHT22;47119;49.130;9.218;2023-07-02T07:08:23;20.56;66.02
61351;DHT22;47119;49.130;9.218;2023-07-02T07:10:52;20.57;65.75
61351;DHT22;47119;49.130;9.218;2023-07-02T07:13:19;20.57;66.68
61351;DHT22;47119;49.130;9.218;2023-07-02T07:15:49;20.56;64.99
61351;DHT22;47119;49.130;9.218;2023-07-02T07:18:20;20.54;65.19
61351;DHT22;47119;49.130;9.218;2023-07-02T07:20:48;20.54;65.40
61351;DHT22;47119;49.130;9.218;2023-07-02T07:23:16;20.56;64.80
61351;DHT22;47119;49.130;9.218;2023-07-02T07:25:49;20.48;63.39
61351;DHT22;47119;49.130;9.218;2023-07-02T07:28:17;20.50;64.14
61351;DHT22;47119;49.130;9.218;2023-07-02T07:30:44;20.48;63.31
61351;DHT22;47119;49.130;9.218;2023-07-02T13:32:32;21.01;58.50
61351;DHT22;47119;49.130;9.218;2023-07-02T13:35:04;21.02;58.12
61351;DHT22;47119;49.130;9.218;2023-07-02T13:37:45;20.97;60.98
61351;DHT22;47119;49.130;9.218;2023-07-02T13:40:13;20.97;60.65
61351;DHT22;47119;49.130;9.218;2023-07-02T13:42:41;21.02;60.10
61351;DHT22;47119;49.130;9.218;2023-07-02T13:45:10;20.99;58.89
61351;DHT22;47119;49.130;9.218;2023-07-02T13:47:38;21.01;59.38
61351;DHT22;47119;49.130;9.218;2023-07-02T13:50:06;20.95;62.04
61351;DHT22;47119;49.130;9.218;2023-07-02T13:52:33;21.05;58.57
61351;DHT22;47119;49.130;9.218;2023-07-02T13:55:01;21.15;59.71
61351;DHT22;47119;49.130;9.218;2023-07-02T13:57:28;21.04;60.56
61351;DHT22;47119;49.130;9.218;2023-07-02T13:59:58;20.99;61.70
61351;DHT22;47119;49.130;9.218;2023-07-02T14:02:28;21.06;59.32
61351;DHT22;47119;49.130;9.218;2023-07-02T14:04:59;21.05;58.81
61351;DHT22;47119;49.130;9.218;2023-07-02T14:07:29;21.11;57.46
61351;DHT22;47119;49.130;9.218;2023-07-02T14:09:59;21.12;57.14
61351;DHT22;47119;49.130;9.218;2023-07-02T14:12:26;21.18;56.56
61351;DHT22;47119;49.130;9.218;2023-07-02T14:14:53;21.24;58.87
61351;DHT22;47119;49.130;9.218;2023-07-02T14:17:24;21.80;56.32
61351;DHT22;47119;49.130;9.218;2023-07-02T14:19:51;22.35;54.62
61351;DHT22;47119;49.130;9.218;2023-07-02T14:22:20;21.84;56.03
61351;DHT22;47119;49.130;9.218;2023-07-02T14:24:47;21.53;56.53
61351;DHT22;47119;49.130;9.218;2023-07-02T14:27:20;21.45;56.32
61351;DHT22;47119;49.130;9.218;2023-07-02T14:29:49;21.43;56.69
61351;DHT22;47119;49.130;9.218;2023-07-02T14:32:17;21.35;54.61
61351;DHT22;47119;49.130;9.218;2023-07-02T14:34:45;21.24;58.84
61351;DHT22;47119;49.130;9.218;2023-07-02T14:37:15;21.26;55.72
61351;DHT22;47119;49.130;9.218;2023-07-02T14:39:44;21.24;55.75
61351;DHT22;47119;49.130;9.218;2023-07-02T14:42:16;21.16;60.20
61351;DHT22;47119;49.130;9.218;2023-07-02T14:44:48;21.16;58.50
61351;DHT22;47119;49.130;9.218;2023-07-02T14:47:21;21.09;60.01
61351;DHT22;47119;49.130;9.218;2023-07-02T14:49:54;21.12;59.09
61351;DHT22;47119;49.130;9.218;2023-07-02T14:52:24;21.18;55.94
61351;DHT22;47119;49.130;9.218;2023-07-02T14:54:53;21.24;56.30
61351;DHT22;47119;49.130;9.218;2023-07-02T14:57:20;21.11;58.03
61351;DHT22;47119;49.130;9.218;2023-07-02T14:59:48;21.19;56.55
61351;DHT22;47119;49.130;9.218;2023-07-02T15:02:17;21.22;56.22
61351;DHT22;47119;49.130;9.218;2023-07-02T15:04:45;21.16;60.65
61351;DHT22;47119;49.130;9.218;2023-07-02T15:07:16;21.19;57.59
61351;DHT22;47119;49.130;9.218;2023-07-02T15:09:43;21.16;58.72
61351;DHT22;47119;49.130;9.218;2023-07-02T15:12:13;21.15;59.05
61351;DHT22;47119;49.130;9.218;2023-07-02T15:14:40;21.16;57.70
61351;DHT22;47119;49.130;9.218;2023-07-02T15:17:09;21.19;56.91
61351;DHT22;47119;49.130;9.218;2023-07-02T15:19:36;21.24;56.93
61351;DHT22;47119;49.130;9.218;2023-07-02T15:22:04;21.28;55.72
61351;DHT22;47119;49.130;9.218;2023-07-02T15:24:32;21.26;56.48
61351;DHT22;47119;49.130;9.218;2023-07-02T15:27:00;21.28;56.25
61351;DHT22;47119;49.130;9.218;2023-07-02T15:29:36;21.28;55.48
61351;DHT22;47119;49.130;9.218;2023-07-02T15:32:13;21.22;56.79
61351;DHT22;47119;49.130;9.218;2023-07-02T15:34:57;21.11;56.75
61351;DHT22;47119;49.130;9.218;2023-07-02T15:37:24;21.09;64.47
61351;DHT22;47119;49.130;9.218;2023-07-02T15:39:52;21.08;60.24
61351;DHT22;47119;49.130;9.218;2023-07-02T15:42:20;20.92;61.95
61351;DHT22;47119;49.130;9.218;2023-07-02T15:44:47;21.04;60.97
61351;DHT22;47119;49.130;9.218;2023-07-02T15:47:14;20.94;65.47
61351;DHT22;47119;49.130;9.218;2023-07-02T15:49:41;21.11;61.83
61351;DHT22;47119;49.130;9.218;2023-07-02T15:52:13;21.09;64.31
61351;DHT22;47119;49.130;9.218;2023-07-02T15:54:40;21.12;65.04
61351;DHT22;47119;49.130;9.218;2023-07-02T15:57:08;20.97;71.19
61351;DHT22;47119;49.130;9.218;2023-07-02T15:59:35;20.97;75.71
61351;DHT22;47119;49.130;9.218;2023-07-02T16:48:23;20.80;67.99
61351;DHT22;47119;49.130;9.218;2023-07-02T16:50:56;20.77;69.70
61351;DHT22;47119;49.130;9.218;2023-07-02T16:53:24;20.85;64.88
61351;DHT22;47119;49.130;9.218;2023-07-02T16:55:53;20.78;67.01
61351;DHT22;47119;49.130;9.218;2023-07-02T16:58:26;20.80;67.99
61351;DHT22;47119;49.130;9.218;2023-07-02T17:00:59;20.81;65.09
61351;DHT22;47119;49.130;9.218;2023-07-02T17:03:36;20.81;63.07
61351;DHT22;47119;49.130;9.218;2023-07-02T17:06:06;20.74;69.87
61351;DHT22;47119;49.130;9.218;2023-07-02T17:08:44;20.91;59.27
61351;DHT22;47119;49.130;9.218;2023-07-02T17:11:22;20.87;60.91
61351;DHT22;47119;49.130;9.218;2023-07-02T17:13:59;20.87;63.63
61351;DHT22;47119;49.130;9.218;2023-07-02T17:16:30;20.91;61.05
61351;DHT22;47119;49.130;9.218;2023-07-02T17:18:59;20.85;61.30
61351;DHT22;47119;49.130;9.218;2023-07-02T17:29:42;20.78;67.25
61351;DHT22;47119;49.130;9.218;2023-07-02T17:32:21;20.84;63.50
61351;DHT22;47119;49.130;9.218;2023-07-02T17:34:51;20.91;64.53
61351;DHT22;47119;49.130;9.218;2023-07-02T17:37:18;20.74;65.57
61351;DHT22;47119;49.130;9.218;2023-07-02T17:39:47;20.88;64.79
61351;DHT22;47119;49.130;9.218;2023-07-02T17:42:20;20.85;66.27
61351;DHT22;47119;49.130;9.218;2023-07-02T17:44:50;20.87;61.24
61351;DHT22;47119;49.130;9.218;2023-07-02T17:47:28;20.85;63.25
61351;DHT22;47119;49.130;9.218;2023-07-02T17:54:36;20.88;58.90
61351;DHT22;47119;49.130;9.218;2023-07-02T17:57:07;20.95;57.87
61351;DHT22;47119;49.130;9.218;2023-07-02T17:59:35;20.88;60.32
61351;DHT22;47119;49.130;9.218;2023-07-02T18:02:10;20.80;66.25
61351;DHT22;47119;49.130;9.218;2023-07-02T18:04:45;20.90;59.69
61351;DHT22;47119;49.130;9.218;2023-07-02T18:07:16;20.85;61.90
61351;DHT22;47119;49.130;9.218;2023-07-02T18:10:01;20.81;64.83
61351;DHT22;47119;49.130;9.218;2023-07-02T18:12:52;20.85;60.54
61351;DHT22;47119;49.130;9.218;2023-07-02T18:15:36;20.78;61.79
61351;DHT22;47119;49.130;9.218;2023-07-02T18:18:05;20.88;59.43
61351;DHT22;47119;49.130;9.218;2023-07-02T18:20:40;20.80;66.69
61351;DHT22;47119;49.130;9.218;2023-07-02T18:23:32;20.78;62.04
61351;DHT22;47119;49.130;9.218;2023-07-02T18:26:06;20.84;65.54
61351;DHT22;47119;49.130;9.218;2023-07-02T18:28:37;20.78;67.18
61351;DHT22;47119;49.130;9.218;2023-07-02T18:31:12;20.85;66.28
61351;DHT22;47119;49.130;9.218;2023-07-02T18:33:41;20.83;66.44
61351;DHT22;47119;49.130;9.218;2023-07-02T18:36:16;20.77;67.92
61351;DHT22;47119;49.130;9.218;2023-07-02T18:38:47;20.84;67.23
61351;DHT22;47119;49.130;9.218;2023-07-02T18:41:18;20.83;65.78
61351;DHT22;47119;49.130;9.218;2023-07-02T18:44:12;20.80;67.51
61351;DHT22;47119;49.130;9.218;2023-07-02T18:47:23;20.81;66.15
61351;DHT22;47119;49.130;9.218;2023-07-02T18:49:57;20.84;67.99
61351;DHT22;47119;49.130;9.218;2023-07-02T18:52:31;20.78;63.02
61351;DHT22;47119;49.130;9.218;2023-07-02T18:54:58;20.83;62.10
61351;DHT22;47119;49.130;9.218;2023-07-02T18:58:02;20.83;67.62
61351;DHT22;47119;49.130;9.218;2023-07-02T19:00:30;20.83;67.80
61351;DHT22;47119;49.130;9.218;2023-07-02T19:03:02;20.83;64.24
61351;DHT22;47119;49.130;9.218;2023-07-02T19:05:35;20.80;65.05
61351;DHT22;47119;49.130;9.218;2023-07-02T19:08:02;20.80;67.06
61351;DHT22;47119;49.130;9.218;2023-07-02T19:10:29;20.74;67.93
61351;DHT22;47119;49.130;9.218;2023-07-02T19:12:57;20.78;68.12
61351;DHT22;47119;49.130;9.218;2023-07-02T19:15:27;20.83;67.22
61351;DHT22;47119;49.130;9.218;2023-07-02T19:17:57;20.81;65.12
61351;DHT22;47119;49.130;9.218;2023-07-02T19:20:29;20.78;67.10
61351;DHT22;47119;49.130;9.218;2023-07-02T19:22:57;20.81;67.55
61351;DHT22;47119;49.130;9.218;2023-07-02T19:25:25;20.80;67.34
61351;DHT22;47119;49.130;9.218;2023-07-02T19:27:53;20.81;67.59
61351;DHT22;47119;49.130;9.218;2023-07-02T19:30:20;20.80;66.24
61351;DHT22;47119;49.130;9.218;2023-07-02T19:32:48;20.80;67.75
61351;DHT22;47119;49.130;9.218;2023-07-02T19:35:20;20.77;67.25
61351;DHT22;47119;49.130;9.218;2023-07-02T19:37:50;20.74;67.67
61351;DHT22;47119;49.130;9.218;2023-07-02T19:43:07;20.77;68.37
61351;DHT22;47119;49.130;9.218;2023-07-02T19:45:44;20.75;68.50
61351;DHT22;47119;49.130;9.218;2023-07-02T19:48:20;20.74;68.67
61351;DHT22;47119;49.130;9.218;2023-07-02T19:51:44;20.73;68.84
61351;DHT22;47119;49.130;9.218;2023-07-02T19:54:43;20.74;68.73
61351;DHT22;47119;49.130;9.218;2023-07-02T19:57:36;20.75;67.82
61351;DHT22;47119;49.130;9.218;2023-07-02T20:00:14;20.75;67.32
61351;DHT22;47119;49.130;9.218;2023-07-02T20:02:51;20.73;66.30
61351;DHT22;47119;49.130;9.218;2023-07-02T20:08:39;20.71;63.86
61351;DHT22;47119;49.130;9.218;2023-07-02T20:11:15;20.71;66.83
61351;DHT22;47119;49.130;9.218;2023-07-02T20:14:29;20.70;66.21
61351;DHT22;47119;49.130;9.218;2023-07-02T20:17:17;20.71;66.39
61351;DHT22;47119;49.130;9.218;2023-07-02T20:19:45;20.74;66.04
61351;DHT22;47119;49.130;9.218;2023-07-02T20:22:21;20.71;61.49
61351;DHT22;47119;49.130;9.218;2023-07-02T20:25:10;20.75;61.09
61351;DHT22;47119;49.130;9.218;2023-07-02T20:27:41;20.74;61.35
61351;DHT22;47119;49.130;9.218;2023-07-02T20:30:11;20.77;64.14
61351;DHT22;47119;49.130;9.218;2023-07-02T20:32:44;20.71;62.72
61351;DHT22;47119;49.130;9.218;2023-07-02T20:35:14;20.71;65.37
61351;DHT22;47119;49.130;9.218;2023-07-02T20:37:51;20.73;63.65
61351;DHT22;47119;49.130;9.218;2023-07-02T20:40:21;20.73;59.92
61351;DHT22;47119;49.130;9.218;2023-07-02T20:42:49;20.77;61.86
61351;DHT22;47119;49.130;9.218;2023-07-02T20:45:18;20.77;62.43
61351;DHT22;47119;49.130;9.218;2023-07-02T20:47:47;20.71;61.99
61351;DHT22;47119;49.130;9.218;2023-07-02T20:50:17;20.74;62.52
61351;DHT22;47119;49.130;9.218;2023-07-02T20:52:49;20.73;62.94
61351;DHT22;47119;49.130;9.218;2023-07-02T20:55:16;20.70;64.27
61351;DHT22;47119;49.130;9.218;2023-07-02T20:57:44;20.68;63.58
61351;DHT22;47119;49.130;9.218;2023-07-02T21:00:12;20.71;63.98
61351;DHT22;47119;49.130;9.218;2023-07-02T21:02:40;20.70;64.59
61351;DHT22;47119;49.130;9.218;2023-07-02T21:05:10;20.70;58.93
61351;DHT22;47119;49.130;9.218;2023-07-02T21:07:38;20.67;62.60
61351;DHT22;47119;49.130;9.218;2023-07-02T21:10:07;20.66;60.94
61351;DHT22;47119;49.130;9.218;2023-07-02T21:12:35;20.68;58.45
61351;DHT22;47119;49.130;9.218;2023-07-02T21:15:03;20.68;59.31
61351;DHT22;47119;49.130;9.218;2023-07-02T21:17:31;20.67;62.07
61351;DHT22;47119;49.130;9.218;2023-07-02T21:19:59;20.66;59.26
61351;DHT22;47119;49.130;9.218;2023-07-02T21:22:26;20.63;58.29
61351;DHT22;47119;49.130;9.218;2023-07-02T21:24:55;20.63;61.16
61351;DHT22;47119;49.130;9.218;2023-07-02T21:27:24;20.66;58.10
61351;DHT22;47119;49.130;9.218;2023-07-02T21:30:01;20.63;58.85
61351;DHT22;47119;49.130;9.218;2023-07-02T21:32:32;20.63;57.89
61351;DHT22;47119;49.130;9.218;2023-07-02T21:35:03;20.61;58.27
61351;DHT22;47119;49.130;9.218;2023-07-02T21:37:35;20.60;58.22
61351;DHT22;47119;49.130;9.218;2023-07-02T21:40:16;20.60;60.71
61351;DHT22;47119;49.130;9.218;2023-07-02T21:42:47;20.58;57.78
61351;DHT22;47119;49.130;9.218;2023-07-02T21:45:14;20.60;57.44
61351;DHT22;47119;49.130;9.218;2023-07-02T21:47:41;20.54;57.58
61351;DHT22;47119;49.130;9.218;2023-07-02T21:50:09;20.53;57.54
61351;DHT22;47119;49.130;9.218;2023-07-02T21:52:37;20.54;56.87
61351;DHT22;47119;49.130;9.218;2023-07-02T21:55:05;20.48;57.90
61351;DHT22;47119;49.130;9.218;2023-07-02T21:57:34;20.50;57.53
61351;DHT22;47119;49.130;9.218;2023-07-02T22:00:07;20.43;57.16
61351;DHT22;47119;49.130;9.218;2023-07-02T22:02:43;20.47;58.05
61351;DHT22;47119;49.130;9.218;2023-07-02T22:05:11;20.41;57.09
61351;DHT22;47119;49.130;9.218;2023-07-02T22:07:39;20.44;58.22
61351;DHT22;47119;49.130;9.218;2023-07-02T22:10:08;20.41;58.19
61351;DHT22;47119;49.130;9.218;2023-07-02T22:12:36;20.39;57.14
61351;DHT22;47119;49.130;9.218;2023-07-02T22:15:04;20.34;56.81
61351;DHT22;47119;49.130;9.218;2023-07-02T22:17:34;20.30;57.01
61351;DHT22;47119;49.130;9.218;2023-07-02T22:20:03;20.30;56.79
61351;DHT22;47119;49.130;9.218;2023-07-02T22:22:37;20.27;56.91
61351;DHT22;47119;49.130;9.218;2023-07-02T22:25:07;20.29;57.41
61351;DHT22;47119;49.130;9.218;2023-07-02T22:27:37;20.26;57.05
61351;DHT22;47119;49.130;9.218;2023-07-02T22:30:09;20.23;57.11
61351;DHT22;47119;49.130;9.218;2023-07-02T22:32:38;20.22;57.52
61351;DHT22;47119;49.130;9.218;2023-07-02T22:35:06;20.29;57.94
61351;DHT22;47119;49.130;9.218;2023-07-02T22:37:35;20.32;57.20
61351;DHT22;47119;49.130;9.218;2023-07-02T22:40:11;20.22;57.31
61351;DHT22;47119;49.130;9.218;2023-07-02T22:42:41;20.25;57.12
61351;DHT22;47119;49.130;9.218;2023-07-02T22:45:12;20.20;57.13
61351;DHT22;47119;49.130;9.218;2023-07-02T22:47:46;20.20;56.81
61351;DHT22;47119;49.130;9.218;2023-07-02T22:50:15;20.17;57.16
61351;DHT22;47119;49.130;9.218;2023-07-02T22:52:46;20.13;57.07
61351;DHT22;47119;49.130;9.218;2023-07-02T22:55:17;20.13;56.78
61351;DHT22;47119;49.130;9.218;2023-07-02T22:57:47;20.12;56.99
61351;DHT22;47119;49.130;9.218;2023-07-02T23:00:18;20.09;56.69
61351;DHT22;47119;49.130;9.218;2023-07-02T23:02:46;20.13;57.18
61351;DHT22;47119;49.130;9.218;2023-07-02T23:05:15;20.13;56.48
61351;DHT22;47119;49.130;9.218;2023-07-02T23:07:45;20.13;56.94
61351;DHT22;47119;49.130;9.218;2023-07-02T23:10:14;20.10;56.96
61351;DHT22;47119;49.130;9.218;2023-07-02T23:12:47;20.12;56.41
61351;DHT22;47119;49.130;9.218;2023-07-02T23:15:19;20.06;56.74
61351;DHT22;47119;49.130;9.218;2023-07-02T23:17:52;20.20;57.17
61351;DHT22;47119;49.130;9.218;2023-07-02T23:20:22;20.17;56.98
61351;DHT22;47119;49.130;9.218;2023-07-02T23:22:52;20.09;56.68
61351;DHT22;47119;49.130;9.218;2023-07-02T23:25:21;20.06;56.90
61351;DHT22;47119;49.130;9.218;2023-07-02T23:27:54;20.04;56.68
61351;DHT22;47119;49.130;9.218;2023-07-02T23:30:32;20.00;57.04
61351;DHT22;47119;49.130;9.218;2023-07-02T23:33:02;20.04;56.92
61351;DHT22;47119;49.130;9.218;2023-07-02T23:35:33;20.13;57.32
61351;DHT22;47119;49.130;9.218;2023-07-02T23:38:03;20.12;57.06
61351;DHT22;47119;49.130;9.218;2023-07-02T23:40:35;20.10;56.48
61351;DHT22;47119;49.130;9.218;2023-07-02T23:43:05;20.05;57.01
61351;DHT22;47119;49.130;9.218;2023-07-02T23:45:36;19.98;56.81
61351;DHT22;47119;49.130;9.218;2023-07-02T23:48:06;20.02;56.74
61351;DHT22;47119;49.130;9.218;2023-07-02T23:50:35;20.04;56.56
61351;DHT22;47119;49.130;9.218;2023-07-02T23:53:06;20.02;56.43
61351;DHT22;47119;49.130;9.218;2023-07-02T23:55:35;20.06;56.60
61351;DHT22;47119;49.130;9.218;2023-07-02T23:58:02;20.05;56.31
